createdAt,value
2023-04-02T00:03:59.542Z,9.97
2023-04-02T00:09:30.859Z,9.96
2023-04-02T00:14:54.961Z,9.87
2023-04-02T00:20:20.009Z,9.84
2023-04-02T00:25:45.380Z,9.90
2023-04-02T00:31:10.579Z,9.81
2023-04-02T00:36:34.726Z,9.82
2023-04-02T00:42:07.608Z,9.76
2023-04-02T00:47:37.191Z,9.77
2023-04-02T00:53:00.465Z,9.83
2023-04-02T00:58:27.643Z,9.86
2023-04-02T01:03:58.370Z,9.95
2023-04-02T01:09:48.345Z,9.88
2023-04-02T01:15:30.415Z,9.90
2023-04-02T01:21:15.917Z,10.06
2023-04-02T01:26:48.060Z,10.05
2023-04-02T01:32:13.897Z,10.02
2023-04-02T01:37:49.561Z,9.98
2023-04-02T01:43:34.394Z,9.97
2023-04-02T01:48:57.676Z,10.04
2023-04-02T01:54:20.982Z,10.08
2023-04-02T01:59:42.991Z,10.05
2023-04-02T02:05:06.475Z,10.10
2023-04-02T02:10:38.505Z,10.12
2023-04-02T02:16:01.533Z,10.18
2023-04-02T02:21:43.838Z,10.07
2023-04-02T02:27:23.380Z,10.12
2023-04-02T02:33:25.474Z,10.19
2023-04-02T02:39:18.824Z,10.11
2023-04-02T02:44:44.728Z,10.11
2023-04-02T02:50:13.910Z,10.10
2023-04-02T02:55:38.099Z,10.07
2023-04-02T03:01:00.440Z,10.08
2023-04-02T03:06:22.577Z,10.07
2023-04-02T03:11:52.324Z,9.99
2023-04-02T03:17:33.799Z,10.08
2023-04-02T03:23:03.808Z,9.90
2023-04-02T03:28:33.011Z,10.00
2023-04-02T03:33:59.197Z,10.03
2023-04-02T03:39:37.643Z,9.99
2023-04-02T03:45:15.295Z,9.88
2023-04-02T03:50:40.195Z,9.88
2023-04-02T03:56:02.419Z,9.91
2023-04-02T04:01:35.301Z,9.97
2023-04-02T04:06:58.532Z,9.99
2023-04-02T04:12:46.895Z,9.95
2023-04-02T04:18:34.628Z,9.93
2023-04-02T04:24:05.795Z,9.90
2023-04-02T04:29:30.510Z,9.98
2023-04-02T04:34:57.516Z,9.92
2023-04-02T04:40:31.833Z,9.92
2023-04-02T04:46:03.380Z,9.96
2023-04-02T04:51:52.042Z,9.91
2023-04-02T04:57:29.256Z,9.91
2023-04-02T05:03:06.009Z,9.96
2023-04-02T05:08:33.019Z,9.87
2023-04-02T05:14:01.236Z,9.96
2023-04-02T05:19:31.480Z,9.95
2023-04-02T05:25:18.167Z,9.90
2023-04-02T05:30:49.527Z,9.76
2023-04-02T05:36:18.289Z,9.73
2023-04-02T05:42:00.158Z,9.59
2023-04-02T05:47:27.418Z,9.46
2023-04-02T05:52:55.324Z,9.49
2023-04-02T05:58:35.451Z,9.59
2023-04-02T06:04:52.306Z,9.58
2023-04-02T06:10:23.487Z,9.59
2023-04-02T06:15:47.864Z,9.67
2023-04-02T06:21:14.229Z,9.61
2023-04-02T06:26:48.302Z,9.57
2023-04-02T06:32:12.552Z,9.63
2023-04-02T06:37:41.003Z,9.66
2023-04-02T06:43:21.059Z,9.69
2023-04-02T06:48:44.743Z,9.71
2023-04-02T06:54:13.106Z,9.82
2023-04-02T06:59:34.841Z,9.85
2023-04-02T07:05:09.032Z,9.91
2023-04-02T07:10:31.059Z,9.99
2023-04-02T07:15:54.962Z,10.02
2023-04-02T07:21:16.961Z,10.11
2023-04-02T07:26:38.932Z,10.24
2023-04-02T07:32:00.766Z,10.17
2023-04-02T07:37:22.458Z,10.10
2023-04-02T07:42:44.937Z,10.13
2023-04-02T07:48:08.347Z,10.21
2023-04-02T07:53:37.705Z,10.24
2023-04-02T07:58:59.438Z,10.24
2023-04-02T08:04:22.394Z,10.26
2023-04-02T08:09:44.442Z,10.31
2023-04-02T08:15:06.982Z,10.30
2023-04-02T08:20:28.741Z,10.33
2023-04-02T08:25:50.924Z,10.32
2023-04-02T08:31:13.480Z,10.31
2023-04-02T08:36:37.912Z,10.31
2023-04-02T08:42:07.071Z,10.26
2023-04-02T08:47:32.494Z,10.41
2023-04-02T08:52:54.590Z,10.39
2023-04-02T08:58:39.172Z,10.39
2023-04-02T09:04:03.319Z,10.34
2023-04-02T09:09:25.710Z,10.45
2023-04-02T09:15:06.004Z,10.47
2023-04-02T09:20:29.297Z,10.59
2023-04-02T09:26:03.525Z,10.61
2023-04-02T09:31:39.009Z,10.66
2023-04-02T09:37:19.433Z,10.67
2023-04-02T09:42:41.273Z,10.72
2023-04-02T09:48:15.452Z,10.70
2023-04-02T09:53:43.208Z,10.70
2023-04-02T09:59:15.307Z,10.65
2023-04-02T10:04:45.305Z,10.61
2023-04-02T10:10:29.252Z,10.65
2023-04-02T10:16:24.951Z,10.75
2023-04-02T10:21:52.249Z,10.83
2023-04-02T10:27:41.470Z,10.88
2023-04-02T10:33:17.317Z,11.00
2023-04-02T10:38:44.243Z,11.11
2023-04-02T10:44:21.902Z,11.14
2023-04-02T10:49:55.632Z,11.17
2023-04-02T10:55:25.409Z,11.30
2023-04-02T11:00:47.629Z,11.09
2023-04-02T11:06:27.081Z,11.20
2023-04-02T11:11:54.743Z,11.28
2023-04-02T11:17:17.908Z,11.26
2023-04-02T11:22:39.706Z,11.30
2023-04-02T11:28:27.998Z,11.30
2023-04-02T11:33:50.202Z,11.36
2023-04-02T11:39:17.484Z,11.33
2023-04-02T11:44:39.605Z,11.45
2023-04-02T11:50:02.606Z,11.56
2023-04-02T11:55:33.658Z,11.62
2023-04-02T12:01:33.174Z,11.62
2023-04-02T12:07:10.789Z,11.70
2023-04-02T12:12:40.380Z,11.79
2023-04-02T12:18:17.376Z,11.71
2023-04-02T12:23:39.287Z,11.76
2023-04-02T12:29:23.484Z,11.84
2023-04-02T12:34:46.456Z,11.87
2023-04-02T12:40:18.268Z,11.96
2023-04-02T12:45:40.236Z,11.92
2023-04-02T12:51:03.596Z,11.90
2023-04-02T12:56:25.774Z,11.93
2023-04-02T13:01:59.094Z,11.79
2023-04-02T13:07:26.255Z,11.89
2023-04-02T13:12:48.006Z,11.94
2023-04-02T13:18:12.686Z,11.96
2023-04-02T13:23:36.921Z,11.96
2023-04-02T13:29:00.254Z,11.90
2023-04-02T13:34:22.389Z,11.82
2023-04-02T13:39:44.053Z,11.70
2023-04-02T13:45:16.975Z,11.37
2023-04-02T13:50:38.906Z,11.11
2023-04-02T13:56:00.846Z,11.11
2023-04-02T14:01:24.559Z,10.92
2023-04-02T14:07:00.795Z,10.89
2023-04-02T14:12:48.671Z,10.74
2023-04-02T14:18:52.332Z,10.83
2023-04-02T14:24:49.544Z,10.78
2023-04-02T14:30:45.332Z,10.67
2023-04-02T14:36:28.717Z,10.81
2023-04-02T14:42:10.673Z,10.73
2023-04-02T14:47:44.836Z,10.81
2023-04-02T14:53:21.104Z,10.81
2023-04-02T14:58:46.783Z,10.51
2023-04-02T15:04:16.703Z,10.45
2023-04-02T15:09:45.519Z,10.54
2023-04-02T15:15:39.021Z,10.54
2023-04-02T15:21:09.399Z,10.44
2023-04-02T15:27:07.121Z,10.30
2023-04-02T15:32:34.050Z,10.22
2023-04-02T15:38:35.832Z,10.17
2023-04-02T15:44:08.112Z,10.09
2023-04-02T15:49:42.825Z,9.95
2023-04-02T15:55:23.574Z,9.91
2023-04-02T16:01:08.261Z,9.99
2023-04-02T16:07:01.543Z,9.84
2023-04-02T16:12:25.660Z,10.02
2023-04-02T16:17:53.651Z,10.02
2023-04-02T16:23:24.557Z,9.79
2023-04-02T16:28:56.815Z,9.80
2023-04-02T16:34:30.695Z,9.74
2023-04-02T16:40:17.332Z,9.83
2023-04-02T16:46:01.823Z,9.76
2023-04-02T16:51:31.820Z,9.76
2023-04-02T16:57:05.644Z,9.58
2023-04-02T17:02:46.035Z,9.67
2023-04-02T17:08:23.136Z,9.56
2023-04-02T17:13:50.391Z,9.43
2023-04-02T17:19:14.713Z,9.32
2023-04-02T17:24:44.284Z,9.37
2023-04-02T17:30:34.000Z,9.34
2023-04-02T17:35:59.717Z,9.26
2023-04-02T17:41:41.374Z,9.04
2023-04-02T17:47:14.898Z,9.11
2023-04-02T17:52:46.123Z,8.99
2023-04-02T17:58:23.647Z,8.90
2023-04-02T18:03:54.294Z,8.90
2023-04-02T18:09:37.173Z,8.95
2023-04-02T18:15:23.359Z,8.63
2023-04-02T18:20:53.823Z,8.75
2023-04-02T18:26:22.262Z,8.39
2023-04-02T18:31:53.731Z,8.64
2023-04-02T18:37:21.460Z,8.35
2023-04-02T18:43:07.015Z,8.28
2023-04-02T18:48:56.787Z,8.23
2023-04-02T18:54:41.778Z,8.08
2023-04-02T19:00:11.509Z,8.14
2023-04-02T19:05:44.668Z,8.14
2023-04-02T19:11:12.500Z,8.12
2023-04-02T19:16:43.157Z,7.96
2023-04-02T19:22:18.277Z,7.79
2023-04-02T19:27:51.339Z,7.78
2023-04-02T19:33:13.194Z,7.52
2023-04-02T19:38:53.845Z,7.60
2023-04-02T19:44:17.329Z,7.64
2023-04-02T19:49:39.082Z,7.56
2023-04-02T19:55:00.814Z,7.52
2023-04-02T20:00:22.512Z,7.63
2023-04-02T20:05:44.315Z,7.31
2023-04-02T20:11:06.901Z,7.28
2023-04-02T20:16:28.703Z,7.29
2023-04-02T20:21:50.509Z,7.08
2023-04-02T20:27:12.219Z,7.14
2023-04-02T20:32:37.223Z,6.94
2023-04-02T20:37:59.934Z,6.94
2023-04-02T20:43:22.495Z,6.99
2023-04-02T20:48:44.921Z,6.67
2023-04-02T20:54:06.734Z,6.86
2023-04-02T20:59:28.546Z,6.83
2023-04-02T21:04:50.358Z,7.02
2023-04-02T21:10:12.136Z,6.93
2023-04-02T21:15:34.134Z,7.10
2023-04-02T21:21:01.321Z,6.83
2023-04-02T21:26:23.478Z,6.75
2023-04-02T21:31:45.571Z,6.92
2023-04-02T21:37:07.366Z,6.86
2023-04-02T21:42:29.092Z,6.65
2023-04-02T21:47:50.943Z,6.87
2023-04-02T21:53:12.701Z,6.84
2023-04-02T21:58:34.710Z,6.67
2023-04-02T22:03:57.681Z,6.63
2023-04-02T22:09:22.757Z,6.66
2023-04-02T22:14:44.424Z,6.56
2023-04-02T22:20:06.651Z,6.73
2023-04-02T22:25:28.317Z,6.49
2023-04-02T22:30:50.262Z,6.57
2023-04-02T22:36:12.882Z,6.67
2023-04-02T22:41:35.405Z,6.68
2023-04-02T22:46:57.109Z,6.41
2023-04-02T22:52:18.813Z,6.31
2023-04-02T22:57:42.006Z,6.45
2023-04-02T23:03:04.196Z,6.44
2023-04-02T23:08:25.992Z,6.29
2023-04-02T23:13:50.268Z,6.18
2023-04-02T23:19:11.987Z,6.16
2023-04-02T23:24:33.689Z,6.40
2023-04-02T23:29:55.599Z,6.41
2023-04-02T23:35:17.274Z,6.33
2023-04-02T23:40:38.991Z,6.40
2023-04-02T23:46:00.991Z,6.42
2023-04-02T23:51:23.740Z,6.19
2023-04-02T23:56:45.539Z,6.14
